Time;durP1;ratioP1;P1;durP2;ratioP2;P2;SDS_P1;SDS_P2;PMS_P1;PMS_P2;Temp;Humidity;BMP_temperature;BMP_pressure;BME280_temperature;BME280_humidity;BME280_pressure;Samples;Min_cycle;Max_cycle;Signal;HPM_P1;HPM_P2
2021/11/24 00:01:08;;;;;;;2.37;2.17;;;6.20;98.20;;;;;;4887978;29;20473;-75
2021/11/24 00:03:37;;;;;;;1.60;1.30;;;6.20;98.20;;;;;;4896252;29;20466;-78
2021/11/24 00:06:03;;;;;;;1.60;1.30;;;6.20;98.20;;;;;;4886900;29;21004;-75
2021/11/24 00:08:30;;;;;;;1.60;1.30;;;6.20;98.20;;;;;;4894788;29;20524;-77
2021/11/24 00:10:57;;;;;;;1.60;1.30;;;6.20;98.20;;;;;;4888028;29;20474;-77
2021/11/24 00:13:24;;;;;;;1.60;1.30;;;6.20;98.20;;;;;;4911148;29;20970;-76
2021/11/24 00:15:51;;;;;;;1.60;1.30;;;6.20;98.20;;;;;;4887373;29;20951;-77
2021/11/24 00:18:18;;;;;;;1.70;1.40;;;6.20;98.20;;;;;;4896377;29;21763;-79
2021/11/24 00:20:46;;;;;;;1.70;1.40;;;6.20;98.20;;;;;;4892092;29;20697;-77
2021/11/24 00:23:13;;;;;;;1.70;1.40;;;6.20;98.20;;;;;;4878708;29;20478;-77
2021/11/24 00:25:41;;;;;;;1.60;1.30;;;6.20;98.20;;;;;;4886000;29;20665;-77
2021/11/24 00:28:08;;;;;;;1.60;1.30;;;6.20;98.20;;;;;;4900859;29;20492;-77
2021/11/24 00:30:35;;;;;;;1.67;1.30;;;6.10;98.20;;;;;;4898222;29;20476;-77
2021/11/24 00:33:02;;;;;;;1.60;1.30;;;6.10;98.20;;;;;;4885668;29;20565;-77
2021/11/24 00:35:29;;;;;;;1.60;1.30;;;6.10;98.20;;;;;;4897679;29;20477;-77
2021/11/24 00:37:57;;;;;;;1.60;1.30;;;6.10;98.20;;;;;;4885323;29;20855;-77
2021/11/24 00:40:23;;;;;;;1.70;1.40;;;6.10;98.20;;;;;;4891172;29;20465;-76
2021/11/24 00:42:50;;;;;;;1.60;1.40;;;6.10;98.20;;;;;;4886453;29;20687;-77
2021/11/24 00:45:17;;;;;;;2.90;2.53;;;6.10;98.20;;;;;;4892614;29;20493;-78
2021/11/24 00:47:45;;;;;;;1.60;1.30;;;6.10;98.20;;;;;;4886182;29;20496;-75
2021/11/24 00:50:12;;;;;;;1.70;1.40;;;6.10;98.20;;;;;;4891327;29;20668;-77
2021/11/24 00:52:39;;;;;;;1.60;1.30;;;6.10;98.20;;;;;;4884141;29;20503;-74
2021/11/24 00:55:08;;;;;;;1.60;1.30;;;6.10;98.20;;;;;;4890359;29;20477;-75
2021/11/24 00:57:35;;;;;;;1.60;1.30;;;6.10;98.20;;;;;;4892533;29;20752;-75
2021/11/24 01:00:02;;;;;;;1.60;1.30;;;6.10;98.20;;;;;;4895194;29;21021;-76
2021/11/24 01:02:29;;;;;;;1.60;1.30;;;6.10;98.20;;;;;;4899202;29;20488;-76
2021/11/24 01:04:56;;;;;;;1.60;1.40;;;6.10;98.20;;;;;;4898707;29;20470;-78
2021/11/24 01:07:23;;;;;;;1.60;1.30;;;6.10;98.20;;;;;;4886076;29;20924;-76
2021/11/24 01:09:51;;;;;;;1.60;1.30;;;6.10;98.20;;;;;;4895797;29;21033;-77
2021/11/24 01:12:21;;;;;;;1.70;1.50;;;6.10;98.20;;;;;;4886768;29;20928;-78
2021/11/24 01:14:48;;;;;;;1.60;1.30;;;6.10;98.20;;;;;;4894805;29;20561;-76
2021/11/24 01:17:14;;;;;;;1.60;1.30;;;6.20;98.20;;;;;;4897491;29;20496;-75
2021/11/24 01:19:41;;;;;;;1.70;1.30;;;6.20;98.20;;;;;;4900064;29;20551;-77
2021/11/24 01:22:08;;;;;;;1.60;1.30;;;6.20;98.20;;;;;;4886964;29;20819;-77
2021/11/24 01:24:36;;;;;;;1.60;1.40;;;6.10;98.20;;;;;;4896590;29;20457;-76
2021/11/24 01:27:03;;;;;;;1.60;1.30;;;6.10;98.20;;;;;;4892647;29;20497;-77
2021/11/24 01:29:31;;;;;;;1.70;1.57;;;6.20;98.20;;;;;;4891750;29;20496;-77
2021/11/24 01:31:58;;;;;;;1.60;1.30;;;6.20;98.20;;;;;;4893933;29;20496;-78
2021/11/24 01:34:25;;;;;;;1.60;1.40;;;6.20;98.20;;;;;;4898306;29;20477;-76
2021/11/24 01:36:51;;;;;;;1.60;1.30;;;6.20;98.20;;;;;;4893590;29;21058;-77
2021/11/24 01:39:18;;;;;;;1.60;1.33;;;6.20;98.20;;;;;;4898908;29;20485;-76
2021/11/24 01:41:45;;;;;;;1.70;1.40;;;6.20;98.20;;;;;;4884645;29;20481;-77
2021/11/24 01:44:20;;;;;;;1.63;1.30;;;6.20;98.20;;;;;;4890743;29;20469;-78
2021/11/24 01:46:53;;;;;;;1.70;1.40;;;6.20;98.20;;;;;;4883600;29;20489;-78
2021/11/24 01:49:21;;;;;;;1.70;1.40;;;6.20;98.20;;;;;;4898536;29;20796;-78
2021/11/24 01:51:48;;;;;;;1.60;1.30;;;6.20;98.20;;;;;;4893397;29;20486;-77
2021/11/24 01:54:16;;;;;;;1.70;1.40;;;6.10;98.20;;;;;;4897972;29;20469;-78
2021/11/24 01:56:44;;;;;;;2.43;2.23;;;6.20;98.20;;;;;;4896122;29;20559;-79
2021/11/24 01:59:12;;;;;;;1.60;1.23;;;6.20;98.20;;;;;;4906077;29;20494;-77
2021/11/24 02:01:41;;;;;;;1.60;1.30;;;6.20;98.20;;;;;;4890172;29;20493;-76
2021/11/24 02:04:10;;;;;;;1.60;1.30;;;6.20;98.20;;;;;;4899874;29;20541;-77
2021/11/24 02:06:37;;;;;;;1.60;1.30;;;6.20;98.20;;;;;;4890103;29;20509;-79
2021/11/24 02:09:05;;;;;;;1.60;1.30;;;6.10;98.20;;;;;;4899249;29;20512;-76
2021/11/24 02:11:36;;;;;;;1.60;1.30;;;6.10;98.20;;;;;;4888180;29;20653;-78
2021/11/24 02:14:03;;;;;;;1.60;1.30;;;6.10;98.20;;;;;;4898145;29;20469;-76
2021/11/24 02:16:30;;;;;;;1.63;1.30;;;6.10;98.20;;;;;;4894565;29;20740;-77
2021/11/24 02:18:57;;;;;;;1.63;1.30;;;6.10;98.20;;;;;;4908187;29;20545;-77
2021/11/24 02:21:25;;;;;;;1.60;1.37;;;6.10;98.20;;;;;;4891387;29;20488;-76
2021/11/24 02:23:52;;;;;;;1.70;1.50;;;6.10;98.20;;;;;;4904704;29;20478;-77
2021/11/24 02:26:22;;;;;;;1.63;1.30;;;6.10;98.20;;;;;;4883294;29;20563;-79
2021/11/24 02:28:49;;;;;;;1.60;1.30;;;6.10;98.20;;;;;;4905697;29;20577;-75
2021/11/24 02:31:20;;;;;;;1.63;1.30;;;6.10;98.20;;;;;;4888359;29;20476;-77
2021/11/24 02:33:50;;;;;;;1.63;1.30;;;6.10;98.20;;;;;;4904643;29;20465;-78
2021/11/24 02:36:17;;;;;;;1.60;1.40;;;6.10;98.20;;;;;;4881705;29;20919;-76
2021/11/24 02:38:46;;;;;;;1.60;1.30;;;6.20;98.20;;;;;;4889832;29;20889;-76
2021/11/24 02:41:14;;;;;;;1.67;1.33;;;6.20;98.20;;;;;;4886646;29;20537;-76
2021/11/24 02:43:41;;;;;;;1.63;1.37;;;6.20;98.20;;;;;;4900296;29;20522;-76
2021/11/24 02:46:08;;;;;;;1.60;1.30;;;6.10;98.20;;;;;;4883251;29;20675;-76
2021/11/24 02:48:35;;;;;;;1.60;1.30;;;6.10;98.20;;;;;;4895688;29;20495;-76
2021/11/24 02:51:02;;;;;;;1.70;1.50;;;6.20;98.20;;;;;;4875805;29;21079;-76
2021/11/24 02:53:31;;;;;;;1.60;1.33;;;6.20;98.20;;;;;;4895950;29;20469;-77
2021/11/24 02:56:00;;;;;;;1.60;1.30;;;6.20;98.20;;;;;;4879865;29;20480;-76
2021/11/24 02:58:27;;;;;;;2.67;2.47;;;6.20;98.20;;;;;;4895748;29;20495;-79
2021/11/24 03:00:55;;;;;;;1.60;1.30;;;6.20;98.20;;;;;;4883526;29;20757;-75
2021/11/24 03:03:22;;;;;;;1.63;1.30;;;6.20;98.20;;;;;;4893686;29;20775;-79
2021/11/24 03:05:49;;;;;;;1.60;1.30;;;6.20;98.20;;;;;;4885836;29;20473;-78
2021/11/24 03:08:16;;;;;;;1.67;1.37;;;6.20;98.20;;;;;;4896131;29;20482;-76
2021/11/24 03:10:42;;;;;;;1.60;1.30;;;6.20;98.20;;;;;;4897810;29;20479;-76
2021/11/24 03:13:10;;;;;;;1.60;1.40;;;6.20;98.20;;;;;;4900330;29;20494;-77
2021/11/24 03:15:37;;;;;;;1.60;1.33;;;6.20;98.20;;;;;;4897759;29;20465;-77
2021/11/24 03:18:04;;;;;;;1.60;1.40;;;6.20;98.20;;;;;;4901169;29;20518;-78
2021/11/24 03:20:31;;;;;;;1.60;1.40;;;6.20;98.20;;;;;;4897683;29;20560;-79
2021/11/24 03:22:59;;;;;;;1.60;1.30;;;6.20;98.20;;;;;;4902157;29;20499;-76
2021/11/24 03:25:26;;;;;;;1.60;1.30;;;6.20;98.20;;;;;;4898387;29;20939;-77
2021/11/24 03:27:53;;;;;;;4.13;3.67;;;6.20;98.20;;;;;;4896136;29;20488;-78
2021/11/24 03:30:24;;;;;;;1.63;1.30;;;6.20;98.20;;;;;;4896652;29;20512;-77
2021/11/24 03:32:51;;;;;;;1.63;1.40;;;6.20;98.20;;;;;;4898219;29;20564;-76
2021/11/24 03:35:19;;;;;;;1.60;1.40;;;6.20;98.20;;;;;;4894307;29;20466;-76
2021/11/24 03:37:47;;;;;;;1.63;1.30;;;6.20;98.20;;;;;;4897117;29;20485;-77
2021/11/24 03:40:16;;;;;;;1.60;1.23;;;6.20;98.20;;;;;;4893274;29;20489;-77
2021/11/24 03:42:45;;;;;;;1.60;1.30;;;6.20;98.20;;;;;;4899982;29;20472;-76
2021/11/24 04:09:00;;;;;;;2.90;2.67;;;6.20;98.20;;;;;;5896412;23;21598;-77
2021/11/24 04:11:27;;;;;;;1.60;1.30;;;6.20;98.20;;;;;;4905222;28;20497;-80
2021/11/24 04:13:54;;;;;;;1.67;1.40;;;6.20;98.20;;;;;;4922494;29;20627;-76
2021/11/24 04:16:21;;;;;;;1.60;1.30;;;6.20;98.20;;;;;;4903491;29;20501;-78
2021/11/24 04:18:48;;;;;;;1.63;1.37;;;6.30;98.20;;;;;;4920467;29;20464;-79
2021/11/24 04:21:15;;;;;;;1.60;1.30;;;6.30;98.20;;;;;;4903900;29;20520;-79
2021/11/24 04:23:42;;;;;;;1.60;1.20;;;6.30;98.20;;;;;;4921876;29;20465;-79
2021/11/24 04:26:10;;;;;;;1.70;1.30;;;6.30;98.20;;;;;;4909029;29;20481;-78
2021/11/24 04:28:38;;;;;;;1.60;1.30;;;6.30;98.20;;;;;;4911425;29;20462;-79
2021/11/24 04:31:06;;;;;;;1.60;1.30;;;6.20;98.20;;;;;;4908156;29;20843;-79
2021/11/24 04:33:33;;;;;;;1.60;1.30;;;6.20;98.20;;;;;;4923029;29;20831;-78
2021/11/24 04:36:00;;;;;;;1.60;1.30;;;6.20;98.20;;;;;;4896487;29;20817;-77
2021/11/24 04:38:27;;;;;;;1.60;1.30;;;6.20;98.20;;;;;;4911753;29;20480;-79
2021/11/24 04:40:55;;;;;;;1.60;1.33;;;6.20;98.20;;;;;;4897365;29;20501;-80
2021/11/24 04:43:28;;;;;;;1.60;1.30;;;6.20;98.20;;;;;;4905082;29;20466;-81
2021/11/24 04:45:56;;;;;;;1.60;1.30;;;6.20;98.20;;;;;;4900109;29;21061;-79
2021/11/24 04:48:23;;;;;;;1.60;1.30;;;6.20;98.20;;;;;;4915547;29;20565;-79
2021/11/24 04:50:50;;;;;;;1.60;1.30;;;6.20;98.20;;;;;;4895774;29;20500;-78
2021/11/24 04:53:17;;;;;;;1.60;1.30;;;6.20;98.20;;;;;;4907076;29;20468;-80
2021/11/24 04:55:44;;;;;;;1.70;1.40;;;6.30;98.20;;;;;;4908702;29;20516;-80
2021/11/24 04:58:11;;;;;;;1.67;1.40;;;6.30;98.20;;;;;;4903259;29;20511;-81
2021/11/24 05:00:40;;;;;;;1.60;1.30;;;6.30;98.20;;;;;;4905173;29;20573;-79
2021/11/24 05:03:07;;;;;;;1.60;1.30;;;6.30;98.20;;;;;;4910133;29;20488;-79
2021/11/24 05:05:34;;;;;;;1.60;1.20;;;6.30;98.20;;;;;;4901120;29;20553;-79
2021/11/24 05:08:02;;;;;;;1.67;1.37;;;6.30;98.20;;;;;;4899498;29;20512;-80
2021/11/24 05:10:29;;;;;;;1.60;1.30;;;6.30;98.20;;;;;;4906508;29;20886;-80
2021/11/24 05:12:56;;;;;;;1.60;1.40;;;6.30;98.20;;;;;;4903016;29;20504;-82
2021/11/24 05:15:25;;;;;;;1.60;1.30;;;6.30;98.20;;;;;;4903068;29;21491;-81
2021/11/24 05:17:57;;;;;;;1.63;1.30;;;6.30;98.20;;;;;;4913209;29;20475;-81
2021/11/24 05:20:29;;;;;;;1.60;1.20;;;6.30;98.20;;;;;;4899322;29;20483;-79
2021/11/24 05:22:58;;;;;;;1.60;1.40;;;6.30;98.20;;;;;;4891104;29;20490;-81
2021/11/24 05:25:26;;;;;;;1.60;1.30;;;6.30;98.20;;;;;;4899374;29;20852;-82
2021/11/24 05:27:54;;;;;;;1.60;1.20;;;6.30;98.20;;;;;;4901195;29;20485;-80
2021/11/24 05:30:21;;;;;;;1.60;1.30;;;6.30;98.20;;;;;;4894744;29;20522;-82
2021/11/24 05:32:48;;;;;;;1.60;1.20;;;6.30;98.20;;;;;;4901064;29;20490;-80
2021/11/24 05:35:21;;;;;;;1.60;1.30;;;6.30;98.20;;;;;;4895882;29;20485;-80
2021/11/24 05:37:48;;;;;;;1.60;1.30;;;6.30;98.20;;;;;;4901522;29;20489;-79
2021/11/24 05:40:15;;;;;;;1.70;1.43;;;6.40;98.20;;;;;;4906714;29;20848;-82
2021/11/24 05:42:46;;;;;;;1.60;1.30;;;6.40;98.20;;;;;;4908329;29;20488;-79
2021/11/24 05:45:14;;;;;;;1.67;1.40;;;6.40;98.20;;;;;;4906321;29;20849;-80
2021/11/24 05:47:54;;;;;;;1.60;1.30;;;6.40;98.20;;;;;;4895841;29;21045;-80
2021/11/24 05:50:22;;;;;;;1.60;1.30;;;6.40;98.20;;;;;;4903269;29;20617;-81
2021/11/24 05:52:50;;;;;;;1.60;1.20;;;6.40;98.20;;;;;;4905049;29;20520;-79
2021/11/24 05:55:17;;;;;;;1.60;1.40;;;6.40;98.20;;;;;;4908382;29;21006;-80
2021/11/24 05:57:44;;;;;;;1.60;1.30;;;6.30;98.20;;;;;;4902429;29;21010;-79
2021/11/24 06:00:13;;;;;;;1.60;1.30;;;6.30;98.20;;;;;;4901601;29;20660;-81
2021/11/24 06:02:40;;;;;;;1.70;1.40;;;6.30;98.20;;;;;;4894475;29;20893;-80
2021/11/24 06:05:08;;;;;;;1.60;1.37;;;6.40;98.20;;;;;;4904432;29;20464;-80
2021/11/24 06:07:36;;;;;;;1.60;1.20;;;6.30;98.20;;;;;;4895563;29;20499;-81
2021/11/24 06:10:05;;;;;;;1.60;1.30;;;6.40;98.20;;;;;;4905401;29;20793;-81
2021/11/24 06:12:32;;;;;;;1.63;1.30;;;6.40;98.20;;;;;;4906484;29;20561;-80
2021/11/24 06:14:59;;;;;;;1.60;1.30;;;6.40;98.20;;;;;;4907145;29;20556;-80
2021/11/24 06:17:25;;;;;;;1.60;1.30;;;6.40;98.20;;;;;;4905741;29;20555;-79
2021/11/24 06:19:52;;;;;;;1.60;1.30;;;6.30;98.20;;;;;;4913593;29;20571;-78
2021/11/24 06:22:19;;;;;;;1.60;1.30;;;6.40;98.20;;;;;;4908843;29;21005;-80
2021/11/24 06:24:48;;;;;;;1.60;1.23;;;6.30;98.20;;;;;;4909326;29;20472;-80
2021/11/24 06:27:15;;;;;;;1.60;1.30;;;6.30;98.20;;;;;;4903777;29;20548;-80
2021/11/24 06:29:42;;;;;;;1.60;1.20;;;6.40;98.20;;;;;;4911131;29;20496;-78
2021/11/24 06:32:08;;;;;;;1.70;1.30;;;6.40;98.20;;;;;;4909870;29;20488;-81
2021/11/24 06:34:35;;;;;;;1.60;1.30;;;6.40;98.20;;;;;;4904482;29;20476;-78
2021/11/24 06:37:02;;;;;;;1.60;1.30;;;6.30;98.20;;;;;;4901557;29;20684;-79
2021/11/24 06:39:29;;;;;;;1.60;1.30;;;6.30;98.20;;;;;;4911675;29;20485;-80
2021/11/24 06:41:59;;;;;;;1.60;1.30;;;6.30;98.20;;;;;;4892972;29;20493;-79
2021/11/24 06:44:26;;;;;;;1.70;1.40;;;6.30;98.20;;;;;;4908718;29;20465;-79
2021/11/24 06:46:53;;;;;;;1.60;1.30;;;6.30;98.20;;;;;;4898452;29;20488;-79
2021/11/24 06:49:20;;;;;;;1.60;1.30;;;6.30;98.20;;;;;;4909819;29;20491;-80
2021/11/24 06:51:47;;;;;;;1.60;1.30;;;6.30;98.20;;;;;;4899203;29;20478;-81
2021/11/24 06:54:16;;;;;;;1.60;1.30;;;6.30;98.20;;;;;;4914758;29;20699;-80
2021/11/24 06:56:43;;;;;;;1.60;1.30;;;6.30;98.20;;;;;;4900670;29;21195;-78
2021/11/24 07:01:52;;;;;;;1.60;1.37;;;6.40;98.20;;;;;;4884562;29;20578;-79
2021/11/24 07:04:19;;;;;;;1.60;1.30;;;6.40;98.20;;;;;;4907439;29;20512;-79
2021/11/24 07:06:47;;;;;;;1.67;1.30;;;6.40;98.20;;;;;;4893218;29;20484;-79
2021/11/24 07:09:14;;;;;;;1.60;1.30;;;6.40;98.20;;;;;;4905921;29;20563;-79
2021/11/24 07:11:42;;;;;;;1.60;1.30;;;6.40;98.20;;;;;;4895299;29;20546;-78
2021/11/24 07:14:11;;;;;;;1.63;1.40;;;6.40;98.20;;;;;;4920310;29;20469;-80
2021/11/24 07:16:38;;;;;;;1.60;1.30;;;6.40;98.20;;;;;;4890792;29;20545;-80
2021/11/24 07:19:06;;;;;;;1.63;1.40;;;6.40;98.20;;;;;;4915131;29;20584;-79
2021/11/24 07:21:33;;;;;;;1.70;1.40;;;6.40;98.20;;;;;;4896579;29;20484;-82
2021/11/24 07:24:00;;;;;;;1.63;1.30;;;6.40;98.20;;;;;;4908230;29;20462;-81
2021/11/24 07:26:27;;;;;;;1.60;1.40;;;6.40;98.20;;;;;;4898535;29;20484;-82
2021/11/24 07:28:53;;;;;;;1.60;1.40;;;6.40;98.20;;;;;;4904011;29;20493;-80
2021/11/24 07:31:22;;;;;;;1.60;1.30;;;6.50;98.20;;;;;;4894171;29;20966;-81
2021/11/24 07:33:48;;;;;;;1.60;1.30;;;6.50;98.20;;;;;;4905275;29;20469;-79
2021/11/24 07:36:15;;;;;;;1.60;1.30;;;6.50;98.20;;;;;;4907476;29;20541;-80
2021/11/24 07:38:42;;;;;;;1.60;1.30;;;6.40;98.20;;;;;;4912132;29;20467;-80
2021/11/24 07:41:09;;;;;;;1.63;1.30;;;6.40;98.20;;;;;;4899070;29;20482;-81
2021/11/24 07:43:36;;;;;;;1.67;1.30;;;6.40;98.20;;;;;;4909009;29;20473;-77
2021/11/24 07:46:03;;;;;;;1.60;1.30;;;6.40;98.20;;;;;;4899126;29;20460;-79
2021/11/24 07:48:31;;;;;;;1.60;1.40;;;6.50;98.20;;;;;;4921512;29;20488;-80
2021/11/24 07:50:58;;;;;;;1.60;1.30;;;6.50;98.20;;;;;;4891233;29;20575;-78
2021/11/24 07:53:25;;;;;;;1.63;1.30;;;6.50;98.20;;;;;;4902974;29;20492;-78
2021/11/24 07:55:52;;;;;;;1.60;1.30;;;6.50;98.20;;;;;;4895331;29;20477;-79
2021/11/24 07:58:20;;;;;;;1.60;1.30;;;6.50;98.20;;;;;;4908370;29;20465;-78
2021/11/24 08:00:47;;;;;;;1.60;1.30;;;6.50;98.20;;;;;;4905327;29;20496;-79
2021/11/24 08:03:14;;;;;;;1.67;1.30;;;6.50;98.20;;;;;;4893936;29;20512;-79
2021/11/24 08:05:42;;;;;;;1.60;1.30;;;6.50;98.20;;;;;;4907844;29;20469;-78
2021/11/24 08:08:10;;;;;;;1.60;1.30;;;6.50;98.20;;;;;;4915064;28;20563;-79
2021/11/24 08:10:38;;;;;;;1.60;1.30;;;6.60;98.20;;;;;;4907535;29;20515;-78
2021/11/24 08:13:04;;;;;;;1.63;1.30;;;6.60;98.20;;;;;;4909801;29;20502;-78
2021/11/24 08:15:31;;;;;;;1.60;1.20;;;6.60;98.20;;;;;;4911836;29;20545;-79
2021/11/24 08:17:58;;;;;;;1.70;1.40;;;6.60;98.20;;;;;;4910197;29;20512;-81
2021/11/24 08:20:25;;;;;;;1.60;1.30;;;6.70;98.20;;;;;;4893044;29;20493;-82
2021/11/24 08:22:53;;;;;;;1.70;1.40;;;6.70;98.20;;;;;;4903847;29;20478;-79
2021/11/24 08:25:20;;;;;;;1.60;1.30;;;6.70;98.20;;;;;;4904564;29;20495;-79
2021/11/24 08:27:47;;;;;;;1.60;1.30;;;6.80;98.20;;;;;;4896697;29;20490;-78
2021/11/24 08:30:14;;;;;;;1.63;1.37;;;6.80;98.20;;;;;;4909223;29;20524;-79
2021/11/24 08:32:42;;;;;;;1.67;1.37;;;6.80;98.20;;;;;;4894209;29;20948;-78
2021/11/24 08:35:10;;;;;;;1.60;1.30;;;6.80;98.20;;;;;;4896611;29;20476;-78
2021/11/24 08:37:37;;;;;;;1.70;1.40;;;6.80;98.20;;;;;;4887756;29;20478;-80
2021/11/24 08:40:07;;;;;;;1.60;1.20;;;6.80;98.20;;;;;;4897704;29;20501;-81
2021/11/24 08:42:34;;;;;;;1.60;1.30;;;6.80;98.20;;;;;;4893359;29;20520;-79
2021/11/24 08:45:00;;;;;;;1.70;1.30;;;6.80;98.20;;;;;;4896650;29;20469;-81
2021/11/24 08:47:27;;;;;;;1.60;1.30;;;6.90;98.20;;;;;;4891190;29;20556;-82
2021/11/24 08:49:55;;;;;;;1.60;1.30;;;6.90;98.20;;;;;;4900110;29;21037;-79
2021/11/24 08:52:22;;;;;;;1.63;1.30;;;6.90;98.20;;;;;;4888067;29;21021;-82
2021/11/24 08:54:49;;;;;;;1.70;1.40;;;6.90;98.20;;;;;;4892821;29;20461;-80
2021/11/24 08:57:17;;;;;;;1.70;1.30;;;7.00;98.20;;;;;;4896674;29;20511;-79
2021/11/24 08:59:44;;;;;;;1.70;1.43;;;7.00;98.20;;;;;;4901730;29;20781;-78
2021/11/24 09:02:12;;;;;;;1.60;1.20;;;7.00;98.20;;;;;;4896994;29;20492;-77
2021/11/24 09:04:39;;;;;;;1.60;1.30;;;7.00;98.20;;;;;;4904522;29;20533;-81
2021/11/24 09:07:06;;;;;;;1.60;1.30;;;7.00;98.20;;;;;;4899481;29;20496;-81
2021/11/24 09:09:35;;;;;;;4.27;3.30;;;7.10;98.20;;;;;;4911321;29;21176;-79
2021/11/24 09:12:01;;;;;;;1.60;1.30;;;7.10;98.20;;;;;;4896828;28;20496;-80
2021/11/24 09:14:30;;;;;;;1.60;1.27;;;7.20;98.20;;;;;;4901654;29;20466;-80
2021/11/24 09:16:57;;;;;;;1.70;1.40;;;7.20;98.20;;;;;;4896283;29;20497;-80
2021/11/24 09:19:23;;;;;;;1.60;1.30;;;7.20;98.20;;;;;;4902573;29;20496;-79
2021/11/24 09:21:51;;;;;;;1.63;1.30;;;7.30;98.20;;;;;;4896401;29;20488;-79
2021/11/24 09:24:25;;;;;;;9.00;3.40;;;7.30;98.20;;;;;;4907359;29;20932;-81
2021/11/24 09:26:57;;;;;;;1.67;1.30;;;7.30;98.20;;;;;;4897540;29;20577;-77
2021/11/24 09:29:25;;;;;;;1.70;1.40;;;7.30;98.20;;;;;;4893083;29;20533;-78
2021/11/24 09:31:54;;;;;;;1.60;1.30;;;7.30;98.20;;;;;;4896679;29;20588;-78
2021/11/24 09:34:21;;;;;;;1.67;1.30;;;7.30;98.20;;;;;;4897081;29;20472;-79
2021/11/24 09:36:48;;;;;;;1.67;1.33;;;7.40;98.20;;;;;;4895815;29;20461;-78
2021/11/24 09:39:15;;;;;;;1.60;1.30;;;7.40;98.20;;;;;;4891950;29;20481;-81
2021/11/24 09:41:45;;;;;;;1.60;1.23;;;7.40;98.20;;;;;;4896689;29;20472;-81
2021/11/24 09:44:13;;;;;;;1.60;1.30;;;7.40;98.20;;;;;;4899478;29;20569;-78
2021/11/24 09:46:44;;;;;;;1.60;1.30;;;7.50;98.20;;;;;;4903130;29;20465;-79
2021/11/24 09:49:14;;;;;;;1.60;1.20;;;7.60;98.20;;;;;;4900248;29;20513;-79
2021/11/24 09:51:43;;;;;;;1.70;1.30;;;7.60;98.20;;;;;;4905723;29;20465;-82
2021/11/24 09:54:11;;;;;;;1.60;1.30;;;7.60;98.20;;;;;;4899835;29;20480;-82
2021/11/24 09:56:40;;;;;;;1.60;1.20;;;7.60;98.20;;;;;;4901837;29;20470;-79
2021/11/24 09:59:07;;;;;;;1.70;1.40;;;7.60;98.20;;;;;;4897957;29;20492;-80
2021/11/24 10:01:34;;;;;;;1.60;1.20;;;7.60;98.20;;;;;;4902311;29;20469;-80
2021/11/24 10:04:01;;;;;;;1.60;1.20;;;7.60;98.20;;;;;;4893582;29;20474;-78
2021/11/24 10:06:29;;;;;;;1.60;1.30;;;7.60;98.20;;;;;;4894331;29;20871;-78
2021/11/24 10:08:57;;;;;;;1.60;1.20;;;7.60;98.20;;;;;;4895867;29;20956;-78
2021/11/24 10:15:41;;;;;;;1.60;1.20;;;7.70;98.20;;;;;;4858975;29;20503;-74
2021/11/24 10:44:29;;;;;;;1.60;1.30;;;7.90;98.20;;;;;;5622547;23;20507;-73
2021/11/24 10:46:57;;;;;;;1.60;1.27;;;7.80;98.20;;;;;;4902152;29;20557;-75
2021/11/24 10:49:33;;;;;;;1.60;1.30;;;7.80;98.20;;;;;;4912418;29;20518;-79
2021/11/24 10:52:06;;;;;;;1.60;1.20;;;7.90;98.20;;;;;;4912663;29;20479;-78
2021/11/24 10:54:33;;;;;;;1.60;1.30;;;8.00;98.20;;;;;;4912450;29;20468;-75
2021/11/24 10:57:06;;;;;;;1.67;1.37;;;8.00;98.20;;;;;;4911309;29;20473;-76
2021/11/24 10:59:36;;;;;;;1.60;1.30;;;8.10;98.20;;;;;;4904949;29;20902;-76
2021/11/24 11:02:18;;;;;;;1.60;1.20;;;8.10;98.20;;;;;;4908330;29;20988;-79
2021/11/24 11:05:00;;;;;;;1.60;1.20;;;8.10;98.20;;;;;;4910173;29;20550;-76
2021/11/24 11:07:28;;;;;;;1.60;1.20;;;8.10;98.20;;;;;;4909424;29;20536;-76
2021/11/24 11:10:07;;;;;;;1.63;1.20;;;8.20;98.20;;;;;;4908828;29;20500;-77
2021/11/24 11:12:35;;;;;;;1.60;1.30;;;8.20;98.20;;;;;;4905715;29;20469;-76
2021/11/24 11:15:29;;;;;;;1.63;1.20;;;8.20;98.20;;;;;;4906072;29;20836;-76
2021/11/24 11:18:12;;;;;;;1.60;1.20;;;8.30;98.20;;;;;;4896160;29;20555;-77
2021/11/24 11:20:46;;;;;;;1.67;1.30;;;8.30;98.20;;;;;;4904240;29;21068;-75
2021/11/24 11:23:17;;;;;;;1.70;1.50;;;8.30;98.20;;;;;;4906751;29;20472;-77
2021/11/24 11:25:48;;;;;;;1.70;1.50;;;8.40;98.20;;;;;;4909839;29;20994;-77
2021/11/24 11:28:16;;;;;;;1.70;1.30;;;8.40;98.20;;;;;;4904363;29;20528;-76
2021/11/24 11:30:46;;;;;;;1.63;1.20;;;8.50;98.20;;;;;;4911374;29;20495;-75
2021/11/24 11:33:15;;;;;;;1.60;1.20;;;8.50;98.20;;;;;;4905921;29;20477;-75
2021/11/24 11:35:43;;;;;;;1.80;1.40;;;8.50;98.20;;;;;;4907934;29;20505;-75
2021/11/24 11:38:13;;;;;;;1.60;1.20;;;8.60;98.20;;;;;;4903849;29;20545;-77
2021/11/24 11:40:42;;;;;;;1.70;1.40;;;8.50;98.20;;;;;;4908632;29;20505;-77
2021/11/24 11:43:10;;;;;;;1.60;1.20;;;8.60;98.20;;;;;;4910452;29;20551;-77
2021/11/24 11:45:40;;;;;;;1.60;1.20;;;8.60;98.20;;;;;;4906996;29;20487;-78
2021/11/24 11:48:09;;;;;;;1.60;1.20;;;8.70;98.20;;;;;;4909650;29;20595;-76
2021/11/24 11:50:49;;;;;;;1.60;1.30;;;8.80;98.20;;;;;;4908164;29;20516;-76
2021/11/24 11:53:19;;;;;;;1.63;1.20;;;8.90;98.20;;;;;;4909337;29;20532;-76
2021/11/24 11:55:48;;;;;;;1.60;1.20;;;9.00;98.20;;;;;;4902424;29;20479;-75
2021/11/24 11:58:27;;;;;;;1.70;1.20;;;9.10;98.20;;;;;;4909184;29;20465;-76
2021/11/24 12:01:06;;;;;;;1.60;1.20;;;9.20;98.20;;;;;;4905950;29;20532;-77
2021/11/24 12:03:58;;;;;;;1.60;1.20;;;9.20;98.20;;;;;;4909252;29;20553;-77
2021/11/24 12:06:27;;;;;;;1.60;1.20;;;9.20;98.20;;;;;;4908271;29;20461;-77
2021/11/24 12:09:19;;;;;;;1.60;1.10;;;9.20;98.20;;;;;;4911978;29;20595;-77
2021/11/24 12:12:19;;;;;;;1.63;1.20;;;9.20;98.20;;;;;;4910227;29;20475;-76
2021/11/24 12:14:55;;;;;;;1.60;1.10;;;9.10;98.20;;;;;;4906117;29;20481;-77
2021/11/24 12:17:46;;;;;;;1.63;1.30;;;9.00;98.20;;;;;;4901986;29;20479;-76
2021/11/24 12:20:48;;;;;;;1.60;1.10;;;9.00;98.20;;;;;;4909613;29;20500;-76
2021/11/24 12:23:26;;;;;;;1.70;1.40;;;9.00;98.20;;;;;;4912811;29;20460;-75
2021/11/24 12:25:56;;;;;;;1.63;1.20;;;8.90;98.20;;;;;;4910820;29;20512;-76
2021/11/24 12:28:24;;;;;;;1.60;1.20;;;8.90;98.20;;;;;;4901634;29;21025;-73
2021/11/24 12:31:01;;;;;;;1.70;1.60;;;8.80;98.20;;;;;;4906396;29;20986;-73
2021/11/24 12:33:29;;;;;;;1.60;1.20;;;8.80;98.20;;;;;;4901834;29;20475;-73
2021/11/24 12:36:00;;;;;;;1.60;1.20;;;8.80;98.20;;;;;;4903249;29;21144;-73
2021/11/24 12:38:30;;;;;;;1.60;1.20;;;8.70;98.20;;;;;;4907959;29;20487;-73
2021/11/24 12:41:00;;;;;;;1.70;1.30;;;8.70;98.20;;;;;;4904775;29;20496;-73
2021/11/24 12:43:29;;;;;;;3.70;3.40;;;8.70;98.20;;;;;;4907821;29;20477;-73
2021/11/24 12:46:06;;;;;;;1.60;1.20;;;8.60;98.20;;;;;;4901795;29;21064;-73
2021/11/24 12:48:35;;;;;;;1.60;1.30;;;8.60;98.20;;;;;;4902688;29;20468;-73
2021/11/24 12:51:04;;;;;;;1.60;1.20;;;8.60;98.20;;;;;;4904961;29;20524;-73
2021/11/24 12:53:36;;;;;;;1.80;1.60;;;8.50;97.90;;;;;;4906269;29;20563;-73
2021/11/24 12:56:13;;;;;;;1.63;1.20;;;8.40;98.20;;;;;;4906093;29;20651;-73
2021/11/24 12:58:41;;;;;;;1.60;1.30;;;8.40;97.80;;;;;;4901646;29;20595;-74
2021/11/24 13:01:15;;;;;;;1.63;1.20;;;8.40;97.90;;;;;;4902574;29;20488;-74
2021/11/24 13:03:43;;;;;;;1.60;1.20;;;8.40;97.80;;;;;;4898875;29;20515;-74
2021/11/24 13:06:11;;;;;;;1.63;1.30;;;8.40;96.90;;;;;;4901702;29;20563;-73
2021/11/24 13:08:38;;;;;;;1.60;1.20;;;8.30;96.20;;;;;;4908050;29;20996;-74
2021/11/24 13:11:07;;;;;;;1.60;1.30;;;8.30;96.80;;;;;;4908303;29;20515;-73
2021/11/24 13:13:35;;;;;;;1.70;1.30;;;8.30;96.60;;;;;;4905699;29;20571;-73
2021/11/24 13:16:01;;;;;;;1.60;1.30;;;8.30;97.50;;;;;;4904177;29;21087;-74
2021/11/24 13:18:29;;;;;;;1.60;1.20;;;8.30;98.10;;;;;;4901081;29;20507;-74
2021/11/24 13:20:56;;;;;;;1.63;1.30;;;8.30;97.20;;;;;;4899413;29;20672;-74
2021/11/24 13:23:24;;;;;;;1.60;1.20;;;8.40;97.60;;;;;;4895724;29;21061;-74
2021/11/24 13:25:51;;;;;;;1.60;1.20;;;8.40;97.80;;;;;;4901077;29;20474;-75
2021/11/24 13:28:19;;;;;;;1.60;1.23;;;8.40;97.50;;;;;;4900820;29;20938;-74
2021/11/24 13:30:48;;;;;;;1.70;1.33;;;8.40;97.30;;;;;;4895657;29;20579;-74
2021/11/24 13:33:18;;;;;;;1.60;1.23;;;8.40;97.40;;;;;;4901519;29;20483;-74
2021/11/24 13:35:47;;;;;;;1.60;1.20;;;8.30;96.70;;;;;;4901643;29;20484;-74
2021/11/24 13:38:20;;;;;;;1.60;1.20;;;8.30;96.10;;;;;;4897799;29;20830;-74
2021/11/24 13:40:50;;;;;;;1.60;1.30;;;8.30;96.40;;;;;;4904073;29;21014;-74
2021/11/24 13:43:31;;;;;;;1.60;1.30;;;8.30;96.80;;;;;;4899329;29;20472;-74
2021/11/24 13:45:58;;;;;;;1.60;1.23;;;8.20;96.80;;;;;;4897092;29;20508;-74
2021/11/24 13:48:25;;;;;;;1.60;1.20;;;8.20;97.40;;;;;;4899541;29;20465;-74
2021/11/24 13:50:58;;;;;;;1.63;1.30;;;8.30;97.50;;;;;;4899250;29;20497;-74
2021/11/24 13:53:28;;;;;;;1.60;1.20;;;8.30;96.90;;;;;;4904672;29;20786;-74
2021/11/24 13:56:14;;;;;;;1.60;1.33;;;8.20;96.80;;;;;;4895929;29;20472;-75
2021/11/24 13:58:43;;;;;;;1.60;1.30;;;8.20;96.80;;;;;;4906914;29;20675;-75
2021/11/24 14:01:15;;;;;;;1.70;1.40;;;8.20;97.10;;;;;;4906469;29;20484;-75
2021/11/24 14:03:49;;;;;;;1.70;1.40;;;8.20;97.40;;;;;;4895448;29;20464;-75